Columbus, Ohio
Current Conditions -  °F | °C
As of 9:51 AM on Wednesday 22 Oct 2014 (Local Time) from KCMH Reporting Station
Overcast Overcast  
Wind Chill: 40°   Ceiling: 1100
Heat Index: 46°   Visibility: 10mi
Dew Point: 41°   Wind: 13mph
Humidity: 83%   Direction: 350°N
Pressure: 30.24"   Gusts: NA
Location:  39.96°N, 83°W
Report Text: KCMH 221351Z 35011KT 10SM BKN011 OVC027 08/05 A3024 RMK AO2 SLP244 T00780050
Loading
Personal Weather Stations






























Interactive Weather Map
Tropical Storm Tracking
New forecast layout! Learn more

10-Day Weather Forecast

Advertisements
Track Severe Weather on mobile